sensor_id;sensor_type;location;lat;lon;timestamp;pressure;altitude;pressure_sealevel;temperature;humidity
64551;BME280;74341;44.510;-123.270;2024-02-16T00:01:38;100901.97;;;9.10;100.00
64551;BME280;74341;44.510;-123.270;2024-02-16T00:04:05;100904.84;;;9.09;100.00
64551;BME280;74341;44.510;-123.270;2024-02-16T00:06:31;100910.31;;;9.09;100.00
64551;BME280;74341;44.510;-123.270;2024-02-16T00:08:57;100916.97;;;9.06;100.00
64551;BME280;74341;44.510;-123.270;2024-02-16T00:11:24;100899.03;;;9.04;100.00
64551;BME280;74341;44.510;-123.270;2024-02-16T00:13:51;100909.09;;;9.03;100.00
64551;BME280;74341;44.510;-123.270;2024-02-16T00:16:17;100910.28;;;9.01;100.00
64551;BME280;74341;44.510;-123.270;2024-02-16T00:18:43;100915.75;;;9.01;100.00
64551;BME280;74341;44.510;-123.270;2024-02-16T00:21:10;100912.13;;;9.00;100.00
64551;BME280;74341;44.510;-123.270;2024-02-16T00:23:36;100894.09;;;8.99;100.00
64551;BME280;74341;44.510;-123.270;2024-02-16T00:26:03;100898.66;;;8.99;100.00
64551;BME280;74341;44.510;-123.270;2024-02-16T00:28:32;100909.03;;;8.95;100.00
64551;BME280;74341;44.510;-123.270;2024-02-16T00:30:59;100916.69;;;8.91;100.00
64551;BME280;74341;44.510;-123.270;2024-02-16T00:33:25;100923.31;;;8.89;100.00
64551;BME280;74341;44.510;-123.270;2024-02-16T00:35:54;100920.06;;;8.85;100.00
64551;BME280;74341;44.510;-123.270;2024-02-16T00:38:20;100920.38;;;8.82;100.00
64551;BME280;74341;44.510;-123.270;2024-02-16T00:40:46;100925.28;;;8.79;100.00
64551;BME280;74341;44.510;-123.270;2024-02-16T00:43:12;100922.88;;;8.75;100.00
64551;BME280;74341;44.510;-123.270;2024-02-16T00:45:39;100927.94;;;8.70;100.00
64551;BME280;74341;44.510;-123.270;2024-02-16T00:48:10;100921.63;;;8.70;100.00
64551;BME280;74341;44.510;-123.270;2024-02-16T00:50:36;100924.53;;;8.68;100.00
64551;BME280;74341;44.510;-123.270;2024-02-16T00:53:03;100931.16;;;8.66;100.00
64551;BME280;74341;44.510;-123.270;2024-02-16T00:55:30;100926.88;;;8.63;100.00
64551;BME280;74341;44.510;-123.270;2024-02-16T00:57:56;100937.22;;;8.60;100.00
64551;BME280;74341;44.510;-123.270;2024-02-16T01:00:23;100934.50;;;8.60;100.00
64551;BME280;74341;44.510;-123.270;2024-02-16T01:02:49;100939.25;;;8.57;100.00
64551;BME280;74341;44.510;-123.270;2024-02-16T01:05:16;100939.25;;;8.57;100.00
64551;BME280;74341;44.510;-123.270;2024-02-16T01:07:44;100942.13;;;8.56;100.00
64551;BME280;74341;44.510;-123.270;2024-02-16T01:10:11;100949.63;;;8.54;100.00
64551;BME280;74341;44.510;-123.270;2024-02-16T01:12:40;100938.19;;;8.50;100.00
64551;BME280;74341;44.510;-123.270;2024-02-16T01:15:07;100946.50;;;8.49;100.00
64551;BME280;74341;44.510;-123.270;2024-02-16T01:17:33;100948.53;;;8.47;100.00
64551;BME280;74341;44.510;-123.270;2024-02-16T01:20:00;100947.00;;;8.44;100.00
64551;BME280;74341;44.510;-123.270;2024-02-16T01:22:28;100948.00;;;8.43;100.00
64551;BME280;74341;44.510;-123.270;2024-02-16T01:24:56;100948.00;;;8.43;100.00
64551;BME280;74341;44.510;-123.270;2024-02-16T01:27:22;100946.56;;;8.39;100.00
64551;BME280;74341;44.510;-123.270;2024-02-16T01:29:48;100950.44;;;8.36;100.00
64551;BME280;74341;44.510;-123.270;2024-02-16T01:32:15;100952.47;;;8.34;100.00
64551;BME280;74341;44.510;-123.270;2024-02-16T01:34:43;100960.78;;;8.33;100.00
64551;BME280;74341;44.510;-123.270;2024-02-16T01:37:12;100950.06;;;8.31;100.00
64551;BME280;74341;44.510;-123.270;2024-02-16T01:39:39;100962.97;;;8.29;100.00
64551;BME280;74341;44.510;-123.270;2024-02-16T01:42:05;100967.56;;;8.29;100.00
64551;BME280;74341;44.510;-123.270;2024-02-16T01:44:32;100966.72;;;8.28;100.00
64551;BME280;74341;44.510;-123.270;2024-02-16T01:46:58;100969.31;;;8.30;100.00
64551;BME280;74341;44.510;-123.270;2024-02-16T01:49:25;100975.75;;;8.29;100.00
64551;BME280;74341;44.510;-123.270;2024-02-16T01:51:51;100979.66;;;8.26;100.00
64551;BME280;74341;44.510;-123.270;2024-02-16T01:54:18;100974.34;;;8.25;100.00
64551;BME280;74341;44.510;-123.270;2024-02-16T01:56:45;100973.47;;;8.24;100.00
64551;BME280;74341;44.510;-123.270;2024-02-16T01:59:12;100976.06;;;8.26;100.00
64551;BME280;74341;44.510;-123.270;2024-02-16T02:01:39;100978.91;;;8.24;100.00
64551;BME280;74341;44.510;-123.270;2024-02-16T02:04:06;100973.66;;;8.23;100.00
64551;BME280;74341;44.510;-123.270;2024-02-16T02:06:32;100982.13;;;8.19;100.00
64551;BME280;74341;44.510;-123.270;2024-02-16T02:08:58;100983.28;;;8.17;100.00
64551;BME280;74341;44.510;-123.270;2024-02-16T02:11:25;100988.03;;;8.15;100.00
64551;BME280;74341;44.510;-123.270;2024-02-16T02:13:51;100988.16;;;8.13;100.00
64551;BME280;74341;44.510;-123.270;2024-02-16T02:16:18;100993.63;;;8.13;100.00
64551;BME280;74341;44.510;-123.270;2024-02-16T02:18:45;100988.34;;;8.12;100.00
64551;BME280;74341;44.510;-123.270;2024-02-16T02:21:13;100998.38;;;8.11;100.00
64551;BME280;74341;44.510;-123.270;2024-02-16T02:23:41;100999.41;;;8.10;100.00
64551;BME280;74341;44.510;-123.270;2024-02-16T02:26:07;101004.09;;;8.08;100.00
64551;BME280;74341;44.510;-123.270;2024-02-16T02:28:34;100994.09;;;8.09;100.00
64551;BME280;74341;44.510;-123.270;2024-02-16T02:31:00;100998.66;;;8.08;100.00
64551;BME280;74341;44.510;-123.270;2024-02-16T02:33:28;101004.09;;;8.08;100.00
64551;BME280;74341;44.510;-123.270;2024-02-16T02:35:55;101000.53;;;8.08;100.00
64551;BME280;74341;44.510;-123.270;2024-02-16T02:38:21;101012.28;;;8.08;100.00
64551;BME280;74341;44.510;-123.270;2024-02-16T02:40:48;101014.00;;;8.09;100.00
64551;BME280;74341;44.510;-123.270;2024-02-16T02:43:16;101013.31;;;8.07;100.00
64551;BME280;74341;44.510;-123.270;2024-02-16T02:45:44;101011.59;;;8.06;100.00
64551;BME280;74341;44.510;-123.270;2024-02-16T02:48:11;101008.84;;;8.06;100.00
64551;BME280;74341;44.510;-123.270;2024-02-16T02:50:38;101009.00;;;8.05;100.00
64551;BME280;74341;44.510;-123.270;2024-02-16T02:53:04;101008.31;;;8.03;100.00
64551;BME280;74341;44.510;-123.270;2024-02-16T02:55:31;101010.03;;;8.04;100.00
64551;BME280;74341;44.510;-123.270;2024-02-16T02:57:57;101016.63;;;8.01;100.00
64551;BME280;74341;44.510;-123.270;2024-02-16T03:00:23;101011.50;;;7.98;100.00
64551;BME280;74341;44.510;-123.270;2024-02-16T03:02:51;101019.81;;;7.96;100.00
64551;BME280;74341;44.510;-123.270;2024-02-16T03:05:18;101016.53;;;7.93;100.00
64551;BME280;74341;44.510;-123.270;2024-02-16T03:07:45;101017.53;;;7.92;100.00
64551;BME280;74341;44.510;-123.270;2024-02-16T03:10:12;101024.84;;;7.91;100.00
64551;BME280;74341;44.510;-123.270;2024-02-16T03:12:47;101022.13;;;7.91;100.00
64551;BME280;74341;44.510;-123.270;2024-02-16T03:15:16;101025.00;;;7.90;100.00
64551;BME280;74341;44.510;-123.270;2024-02-16T03:17:44;101020.72;;;7.87;100.00
64551;BME280;74341;44.510;-123.270;2024-02-16T03:20:10;101017.00;;;7.88;100.00
64551;BME280;74341;44.510;-123.270;2024-02-16T03:22:37;101018.72;;;7.89;100.00
64551;BME280;74341;44.510;-123.270;2024-02-16T03:25:06;101028.56;;;7.90;100.00
64551;BME280;74341;44.510;-123.270;2024-02-16T03:27:33;101031.28;;;7.90;100.00
64551;BME280;74341;44.510;-123.270;2024-02-16T03:29:59;101033.31;;;7.88;100.00
64551;BME280;74341;44.510;-123.270;2024-02-16T03:32:26;101036.03;;;7.88;100.00
64551;BME280;74341;44.510;-123.270;2024-02-16T03:34:52;101048.66;;;7.89;100.00
64551;BME280;74341;44.510;-123.270;2024-02-16T03:37:19;101043.22;;;7.89;100.00
64551;BME280;74341;44.510;-123.270;2024-02-16T03:39:45;101049.50;;;7.90;100.00
64551;BME280;74341;44.510;-123.270;2024-02-16T03:42:12;101053.97;;;7.91;100.00
64551;BME280;74341;44.510;-123.270;2024-02-16T03:44:38;101051.38;;;7.89;100.00
64551;BME280;74341;44.510;-123.270;2024-02-16T03:47:04;101052.66;;;7.85;100.00
64551;BME280;74341;44.510;-123.270;2024-02-16T03:49:31;101060.13;;;7.83;100.00
64551;BME280;74341;44.510;-123.270;2024-02-16T03:51:58;101073.03;;;7.81;100.00
64551;BME280;74341;44.510;-123.270;2024-02-16T03:54:24;101076.03;;;7.78;100.00
64551;BME280;74341;44.510;-123.270;2024-02-16T03:56:54;101080.78;;;7.76;100.00
64551;BME280;74341;44.510;-123.270;2024-02-16T03:59:20;101089.09;;;7.74;100.00
64551;BME280;74341;44.510;-123.270;2024-02-16T04:01:47;101091.69;;;7.76;100.00
64551;BME280;74341;44.510;-123.270;2024-02-16T04:04:13;101094.53;;;7.74;100.00
64551;BME280;74341;44.510;-123.270;2024-02-16T04:06:40;101090.81;;;7.75;100.00
64551;BME280;74341;44.510;-123.270;2024-02-16T04:09:06;101098.00;;;7.76;100.00
64551;BME280;74341;44.510;-123.270;2024-02-16T04:11:33;101098.16;;;7.75;100.00
64551;BME280;74341;44.510;-123.270;2024-02-16T04:14:00;101099.13;;;7.74;100.00
64551;BME280;74341;44.510;-123.270;2024-02-16T04:16:26;101101.72;;;7.75;100.00
64551;BME280;74341;44.510;-123.270;2024-02-16T04:18:52;101110.03;;;7.74;100.00
64551;BME280;74341;44.510;-123.270;2024-02-16T04:21:19;101103.88;;;7.72;100.00
64551;BME280;74341;44.510;-123.270;2024-02-16T04:23:46;101106.59;;;7.72;100.00
64551;BME280;74341;44.510;-123.270;2024-02-16T04:26:13;101111.19;;;7.71;100.00
64551;BME280;74341;44.510;-123.270;2024-02-16T04:28:40;101125.78;;;7.70;100.00
64551;BME280;74341;44.510;-123.270;2024-02-16T04:31:06;101131.22;;;7.70;100.00
64551;BME280;74341;44.510;-123.270;2024-02-16T04:33:33;101137.81;;;7.77;100.00
64551;BME280;74341;44.510;-123.270;2024-02-16T04:35:59;101139.06;;;7.83;100.00
64551;BME280;74341;44.510;-123.270;2024-02-16T04:38:26;101136.63;;;7.90;100.00
64551;BME280;74341;44.510;-123.270;2024-02-16T04:40:52;101135.72;;;7.99;100.00
64551;BME280;74341;44.510;-123.270;2024-02-16T04:43:20;101133.81;;;8.09;100.00
64551;BME280;74341;44.510;-123.270;2024-02-16T04:45:46;101138.50;;;8.17;100.00
64551;BME280;74341;44.510;-123.270;2024-02-16T04:48:14;101144.84;;;8.17;100.00
64551;BME280;74341;44.510;-123.270;2024-02-16T04:50:41;101156.44;;;8.19;100.00
64551;BME280;74341;44.510;-123.270;2024-02-16T04:53:08;101158.88;;;8.23;100.00
64551;BME280;74341;44.510;-123.270;2024-02-16T04:55:34;101145.25;;;8.23;100.00
64551;BME280;74341;44.510;-123.270;2024-02-16T04:58:01;101138.78;;;8.24;100.00
64551;BME280;74341;44.510;-123.270;2024-02-16T05:00:30;101138.50;;;8.27;100.00
64551;BME280;74341;44.510;-123.270;2024-02-16T05:02:56;101150.38;;;8.26;100.00
64551;BME280;74341;44.510;-123.270;2024-02-16T05:05:23;101147.09;;;8.22;100.00
64551;BME280;74341;44.510;-123.270;2024-02-16T05:07:51;101155.59;;;8.19;100.00
64551;BME280;74341;44.510;-123.270;2024-02-16T05:10:23;101159.31;;;8.18;100.00
64551;BME280;74341;44.510;-123.270;2024-02-16T05:12:49;101156.72;;;8.16;100.00
64551;BME280;74341;44.510;-123.270;2024-02-16T05:15:16;101156.16;;;8.13;100.00
64551;BME280;74341;44.510;-123.270;2024-02-16T05:17:46;101152.88;;;8.09;100.00
64551;BME280;74341;44.510;-123.270;2024-02-16T05:20:13;101153.03;;;8.08;100.00
64551;BME280;74341;44.510;-123.270;2024-02-16T05:22:44;101151.47;;;8.05;100.00
64551;BME280;74341;44.510;-123.270;2024-02-16T05:25:15;101159.94;;;8.02;100.00
64551;BME280;74341;44.510;-123.270;2024-02-16T05:27:44;101163.84;;;7.99;100.00
64551;BME280;74341;44.510;-123.270;2024-02-16T05:30:11;101165.09;;;8.05;100.00
64551;BME280;74341;44.510;-123.270;2024-02-16T05:32:40;101180.56;;;8.05;100.00
64551;BME280;74341;44.510;-123.270;2024-02-16T05:35:08;101195.63;;;8.09;100.00
64551;BME280;74341;44.510;-123.270;2024-02-16T05:37:42;101216.09;;;8.13;100.00
64551;BME280;74341;44.510;-123.270;2024-02-16T05:40:11;101225.53;;;8.18;100.00
64551;BME280;74341;44.510;-123.270;2024-02-16T05:42:59;101225.09;;;8.23;100.00
64551;BME280;74341;44.510;-123.270;2024-02-16T05:45:26;101240.41;;;8.24;100.00
64551;BME280;74341;44.510;-123.270;2024-02-16T05:47:52;101234.97;;;8.24;100.00
64551;BME280;74341;44.510;-123.270;2024-02-16T05:50:21;101236.97;;;8.22;100.00
64551;BME280;74341;44.510;-123.270;2024-02-16T05:52:48;101238.72;;;8.13;100.00
64551;BME280;74341;44.510;-123.270;2024-02-16T05:55:15;101239.19;;;7.99;100.00
64551;BME280;74341;44.510;-123.270;2024-02-16T05:57:44;101227.47;;;7.89;100.00
64551;BME280;74341;44.510;-123.270;2024-02-16T06:00:11;101215.75;;;7.78;100.00
64551;BME280;74341;44.510;-123.270;2024-02-16T06:02:39;101195.28;;;7.65;100.00
64551;BME280;74341;44.510;-123.270;2024-02-16T06:05:09;101191.97;;;7.51;100.00
64551;BME280;74341;44.510;-123.270;2024-02-16T06:07:36;101207.16;;;7.44;100.00
64551;BME280;74341;44.510;-123.270;2024-02-16T06:10:06;101214.50;;;7.34;100.00
64551;BME280;74341;44.510;-123.270;2024-02-16T06:12:39;101216.91;;;7.27;100.00
64551;BME280;74341;44.510;-123.270;2024-02-16T06:15:05;101215.63;;;7.21;100.00
64551;BME280;74341;44.510;-123.270;2024-02-16T06:17:32;101216.75;;;7.19;100.00
64551;BME280;74341;44.510;-123.270;2024-02-16T06:19:58;101220.47;;;7.08;100.00
64551;BME280;74341;44.510;-123.270;2024-02-16T06:22:26;101233.75;;;7.01;100.00
64551;BME280;74341;44.510;-123.270;2024-02-16T06:24:52;101233.31;;;6.96;100.00
64551;BME280;74341;44.510;-123.270;2024-02-16T06:27:18;101253.63;;;6.92;100.00
64551;BME280;74341;44.510;-123.270;2024-02-16T06:29:45;101259.19;;;6.91;100.00
64551;BME280;74341;44.510;-123.270;2024-02-16T06:32:11;101270.94;;;6.91;100.00
64551;BME280;74341;44.510;-123.270;2024-02-16T06:34:38;101278.53;;;6.88;100.00
64551;BME280;74341;44.510;-123.270;2024-02-16T06:37:04;101281.25;;;6.88;100.00
64551;BME280;74341;44.510;-123.270;2024-02-16T06:39:31;101277.78;;;6.85;100.00
64551;BME280;74341;44.510;-123.270;2024-02-16T06:41:57;101274.63;;;6.80;100.00
64551;BME280;74341;44.510;-123.270;2024-02-16T06:44:23;101273.16;;;6.76;100.00
64551;BME280;74341;44.510;-123.270;2024-02-16T06:46:49;101278.88;;;6.73;100.00
64551;BME280;74341;44.510;-123.270;2024-02-16T06:49:16;101279.03;;;6.72;100.00
64551;BME280;74341;44.510;-123.270;2024-02-16T06:51:43;101287.47;;;6.69;100.00
64551;BME280;74341;44.510;-123.270;2024-02-16T06:54:11;101300.47;;;6.65;100.00
64551;BME280;74341;44.510;-123.270;2024-02-16T06:56:37;101300.47;;;6.65;100.00
64551;BME280;74341;44.510;-123.270;2024-02-16T06:59:03;101303.91;;;6.67;100.00
64551;BME280;74341;44.510;-123.270;2024-02-16T07:01:30;101311.31;;;6.65;100.00
64551;BME280;74341;44.510;-123.270;2024-02-16T07:03:56;101320.31;;;6.65;100.00
64551;BME280;74341;44.510;-123.270;2024-02-16T07:06:22;101319.94;;;6.70;100.00
64551;BME280;74341;44.510;-123.270;2024-02-16T07:08:49;101307.31;;;6.69;100.00
64551;BME280;74341;44.510;-123.270;2024-02-16T07:11:15;101305.16;;;6.63;100.00
64551;BME280;74341;44.510;-123.270;2024-02-16T07:13:42;101301.28;;;6.56;100.00
64551;BME280;74341;44.510;-123.270;2024-02-16T07:16:09;101297.81;;;6.54;100.00
64551;BME280;74341;44.510;-123.270;2024-02-16T07:18:35;101288.94;;;6.52;100.00
64551;BME280;74341;44.510;-123.270;2024-02-16T07:21:02;101287.38;;;6.49;100.00
64551;BME280;74341;44.510;-123.270;2024-02-16T07:23:29;101281.47;;;6.44;100.00
64551;BME280;74341;44.510;-123.270;2024-02-16T07:25:57;101282.88;;;6.38;100.00
64551;BME280;74341;44.510;-123.270;2024-02-16T07:28:24;101289.72;;;6.33;100.00
64551;BME280;74341;44.510;-123.270;2024-02-16T07:30:50;101273.09;;;6.26;100.00
64551;BME280;74341;44.510;-123.270;2024-02-16T07:33:17;101280.53;;;6.24;100.00
64551;BME280;74341;44.510;-123.270;2024-02-16T07:35:44;101287.06;;;6.21;100.00
64551;BME280;74341;44.510;-123.270;2024-02-16T07:38:10;101283.75;;;6.18;100.00
64551;BME280;74341;44.510;-123.270;2024-02-16T07:40:37;101280.44;;;6.14;100.00
64551;BME280;74341;44.510;-123.270;2024-02-16T07:43:03;101276.88;;;6.14;100.00
64551;BME280;74341;44.510;-123.270;2024-02-16T07:45:30;101287.88;;;6.12;100.00
64551;BME280;74341;44.510;-123.270;2024-02-16T07:47:56;101294.28;;;6.11;100.00
64551;BME280;74341;44.510;-123.270;2024-02-16T07:50:23;101306.16;;;6.10;100.00
64551;BME280;74341;44.510;-123.270;2024-02-16T07:52:50;101305.13;;;6.11;100.00
64551;BME280;74341;44.510;-123.270;2024-02-16T07:55:17;101298.25;;;6.07;100.00
64551;BME280;74341;44.510;-123.270;2024-02-16T07:57:44;101293.84;;;6.06;100.00
64551;BME280;74341;44.510;-123.270;2024-02-16T08:00:11;101308.41;;;6.05;100.00
64551;BME280;74341;44.510;-123.270;2024-02-16T08:02:37;101309.25;;;6.05;100.00
64551;BME280;74341;44.510;-123.270;2024-02-16T08:05:05;101314.69;;;6.05;100.00
64551;BME280;74341;44.510;-123.270;2024-02-16T08:07:34;101323.72;;;6.06;100.00
64551;BME280;74341;44.510;-123.270;2024-02-16T08:10:00;101325.53;;;6.05;100.00
64551;BME280;74341;44.510;-123.270;2024-02-16T08:12:26;101331.84;;;6.06;100.00
64551;BME280;74341;44.510;-123.270;2024-02-16T08:14:53;101332.69;;;6.06;100.00
64551;BME280;74341;44.510;-123.270;2024-02-16T08:17:19;101323.72;;;6.06;100.00
64551;BME280;74341;44.510;-123.270;2024-02-16T08:19:52;101321.00;;;6.06;100.00
64551;BME280;74341;44.510;-123.270;2024-02-16T08:22:19;101308.28;;;6.06;100.00
64551;BME280;74341;44.510;-123.270;2024-02-16T08:24:46;101312.09;;;6.04;100.00
64551;BME280;74341;44.510;-123.270;2024-02-16T08:27:12;101314.72;;;5.94;100.00
64551;BME280;74341;44.510;-123.270;2024-02-16T08:29:42;101328.66;;;5.89;100.00
64551;BME280;74341;44.510;-123.270;2024-02-16T08:32:08;101332.66;;;5.85;100.00
64551;BME280;74341;44.510;-123.270;2024-02-16T08:34:35;101344.47;;;5.84;100.00
64551;BME280;74341;44.510;-123.270;2024-02-16T08:37:05;101346.34;;;5.84;100.00
64551;BME280;74341;44.510;-123.270;2024-02-16T08:39:33;101343.03;;;5.80;100.00
64551;BME280;74341;44.510;-123.270;2024-02-16T08:42:00;101333.44;;;5.76;100.00
64551;BME280;74341;44.510;-123.270;2024-02-16T08:44:26;101342.53;;;5.75;100.00
64551;BME280;74341;44.510;-123.270;2024-02-16T08:46:53;101329.09;;;5.74;100.00
64551;BME280;74341;44.510;-123.270;2024-02-16T08:49:20;101330.25;;;5.71;100.00
64551;BME280;74341;44.510;-123.270;2024-02-16T08:51:47;101325.91;;;5.68;100.00
64551;BME280;74341;44.510;-123.270;2024-02-16T08:54:14;101331.50;;;5.67;100.00
64551;BME280;74341;44.510;-123.270;2024-02-16T08:56:40;101338.75;;;5.66;100.00
64551;BME280;74341;44.510;-123.270;2024-02-16T08:59:07;101344.31;;;5.65;100.00
64551;BME280;74341;44.510;-123.270;2024-02-16T09:01:38;101345.31;;;5.64;100.00
64551;BME280;74341;44.510;-123.270;2024-02-16T09:04:07;101333.72;;;5.62;100.00
64551;BME280;74341;44.510;-123.270;2024-02-16T09:06:33;101342.97;;;5.59;100.00
64551;BME280;74341;44.510;-123.270;2024-02-16T09:09:05;101353.22;;;5.56;100.00
64551;BME280;74341;44.510;-123.270;2024-02-16T09:11:33;101364.94;;;5.56;100.00
64551;BME280;74341;44.510;-123.270;2024-02-16T09:14:00;101365.94;;;5.55;100.00
64551;BME280;74341;44.510;-123.270;2024-02-16T09:16:26;101371.59;;;5.52;100.00
64551;BME280;74341;44.510;-123.270;2024-02-16T09:18:52;101375.19;;;5.52;100.00
64551;BME280;74341;44.510;-123.270;2024-02-16T09:21:19;101377.16;;;5.50;100.00
64551;BME280;74341;44.510;-123.270;2024-02-16T09:23:45;101362.84;;;5.48;100.00
64551;BME280;74341;44.510;-123.270;2024-02-16T09:26:11;101369.41;;;5.46;100.00
64551;BME280;74341;44.510;-123.270;2024-02-16T09:28:41;101382.25;;;5.44;100.00
64551;BME280;74341;44.510;-123.270;2024-02-16T09:31:07;101394.91;;;5.43;100.00
64551;BME280;74341;44.510;-123.270;2024-02-16T09:33:34;101393.94;;;5.44;100.00
64551;BME280;74341;44.510;-123.270;2024-02-16T09:36:03;101385.56;;;5.47;100.00
64551;BME280;74341;44.510;-123.270;2024-02-16T09:38:30;101387.50;;;5.45;100.00
64551;BME280;74341;44.510;-123.270;2024-02-16T09:40:56;101383.09;;;5.44;100.00
64551;BME280;74341;44.510;-123.270;2024-02-16T09:43:27;101380.50;;;5.43;100.00
64551;BME280;74341;44.510;-123.270;2024-02-16T09:45:57;101378.91;;;5.40;100.00
64551;BME280;74341;44.510;-123.270;2024-02-16T09:48:26;101377.19;;;5.39;100.00
64551;BME280;74341;44.510;-123.270;2024-02-16T09:50:54;101373.13;;;5.33;100.00
64551;BME280;74341;44.510;-123.270;2024-02-16T09:53:27;101373.50;;;5.29;100.00
64551;BME280;74341;44.510;-123.270;2024-02-16T09:55:54;101371.91;;;5.26;100.00
64551;BME280;74341;44.510;-123.270;2024-02-16T09:58:21;101373.63;;;5.27;100.00
64551;BME280;74341;44.510;-123.270;2024-02-16T10:00:51;101374.88;;;5.23;100.00
64551;BME280;74341;44.510;-123.270;2024-02-16T10:03:27;101380.53;;;5.20;100.00
64551;BME280;74341;44.510;-123.270;2024-02-16T10:06:14;101379.06;;;5.16;100.00
64551;BME280;74341;44.510;-123.270;2024-02-16T10:11:15;101379.91;;;5.17;100.00
64551;BME280;74341;44.510;-123.270;2024-02-16T10:13:42;101385.72;;;5.12;100.00
64551;BME280;74341;44.510;-123.270;2024-02-16T10:16:10;101385.13;;;5.08;100.00
64551;BME280;74341;44.510;-123.270;2024-02-16T10:18:39;101399.63;;;5.07;100.00
64551;BME280;74341;44.510;-123.270;2024-02-16T10:21:07;101388.19;;;5.04;100.00
64551;BME280;74341;44.510;-123.270;2024-02-16T10:23:34;101392.03;;;5.01;100.00
64551;BME280;74341;44.510;-123.270;2024-02-16T10:26:01;101394.84;;;5.00;100.00
64551;BME280;74341;44.510;-123.270;2024-02-16T10:28:28;101391.41;;;4.98;100.00
64551;BME280;74341;44.510;-123.270;2024-02-16T10:31:00;101382.50;;;4.95;100.00
64551;BME280;74341;44.510;-123.270;2024-02-16T10:33:32;101386.34;;;4.93;100.00
64551;BME280;74341;44.510;-123.270;2024-02-16T10:36:00;101378.22;;;4.93;100.00
64551;BME280;74341;44.510;-123.270;2024-02-16T10:38:29;101378.44;;;4.90;100.00
64551;BME280;74341;44.510;-123.270;2024-02-16T10:40:56;101372.53;;;4.85;100.00
64551;BME280;74341;44.510;-123.270;2024-02-16T10:43:36;101387.09;;;4.84;100.00
64551;BME280;74341;44.510;-123.270;2024-02-16T10:46:02;101390.75;;;4.83;100.00
64551;BME280;74341;44.510;-123.270;2024-02-16T10:48:33;101399.78;;;4.83;100.00
64551;BME280;74341;44.510;-123.270;2024-02-16T10:51:00;101404.53;;;4.80;100.00
64551;BME280;74341;44.510;-123.270;2024-02-16T10:53:29;101402.09;;;4.76;100.00
64551;BME280;74341;44.510;-123.270;2024-02-16T10:56:03;101405.03;;;4.73;100.00
64551;BME280;74341;44.510;-123.270;2024-02-16T10:58:31;101408.88;;;4.71;100.00
64551;BME280;74341;44.510;-123.270;2024-02-16T11:01:10;101410.69;;;4.70;100.00
64551;BME280;74341;44.510;-123.270;2024-02-16T11:03:44;101406.50;;;4.66;100.00
64551;BME280;74341;44.510;-123.270;2024-02-16T11:06:18;101399.34;;;4.65;100.00
64551;BME280;74341;44.510;-123.270;2024-02-16T11:08:49;101398.63;;;4.63;100.00
64551;BME280;74341;44.510;-123.270;2024-02-16T11:11:23;101405.16;;;4.61;100.00
64551;BME280;74341;44.510;-123.270;2024-02-16T11:14:00;101399.97;;;4.57;100.00
64551;BME280;74341;44.510;-123.270;2024-02-16T11:16:29;101404.53;;;4.57;100.00
64551;BME280;74341;44.510;-123.270;2024-02-16T11:18:58;101400.31;;;4.53;100.00
64551;BME280;74341;44.510;-123.270;2024-02-16T11:21:28;101390.50;;;4.52;100.00
64551;BME280;74341;44.510;-123.270;2024-02-16T11:24:06;101388.00;;;4.49;100.00
64551;BME280;74341;44.510;-123.270;2024-02-16T11:26:44;101380.50;;;4.41;100.00
64551;BME280;74341;44.510;-123.270;2024-02-16T11:29:11;101371.88;;;4.36;100.00
64551;BME280;74341;44.510;-123.270;2024-02-16T11:31:39;101383.94;;;4.32;100.00
64551;BME280;74341;44.510;-123.270;2024-02-16T11:34:05;101383.44;;;4.27;100.00
64551;BME280;74341;44.510;-123.270;2024-02-16T11:36:33;101383.66;;;4.24;100.00
64551;BME280;74341;44.510;-123.270;2024-02-16T11:39:03;101393.97;;;4.18;100.00
64551;BME280;74341;44.510;-123.270;2024-02-16T11:41:38;101395.09;;;4.16;100.00
64551;BME280;74341;44.510;-123.270;2024-02-16T11:44:05;101394.56;;;4.11;100.00
64551;BME280;74341;44.510;-123.270;2024-02-16T11:46:31;101396.75;;;4.06;100.00
64551;BME280;74341;44.510;-123.270;2024-02-16T11:49:10;101403.88;;;4.07;100.00
64551;BME280;74341;44.510;-123.270;2024-02-16T11:51:40;101393.44;;;4.02;100.00
64551;BME280;74341;44.510;-123.270;2024-02-16T11:54:11;101385.41;;;4.00;100.00
64551;BME280;74341;44.510;-123.270;2024-02-16T11:56:38;101387.63;;;3.95;100.00
64551;BME280;74341;44.510;-123.270;2024-02-16T11:59:08;101388.72;;;3.93;100.00
64551;BME280;74341;44.510;-123.270;2024-02-16T12:01:35;101388.09;;;3.89;100.00
64551;BME280;74341;44.510;-123.270;2024-02-16T12:04:02;101393.63;;;3.88;100.00
64551;BME280;74341;44.510;-123.270;2024-02-16T12:06:30;101393.63;;;3.88;100.00
64551;BME280;74341;44.510;-123.270;2024-02-16T12:09:05;101394.69;;;3.85;100.00
64551;BME280;74341;44.510;-123.270;2024-02-16T12:11:32;101392.97;;;3.84;100.00
64551;BME280;74341;44.510;-123.270;2024-02-16T12:14:04;101398.63;;;3.81;100.00
64551;BME280;74341;44.510;-123.270;2024-02-16T12:16:30;101397.97;;;3.77;100.00
64551;BME280;74341;44.510;-123.270;2024-02-16T12:19:06;101401.81;;;3.75;100.00
64551;BME280;74341;44.510;-123.270;2024-02-16T12:21:33;101405.25;;;3.77;100.00
64551;BME280;74341;44.510;-123.270;2024-02-16T12:24:07;101401.91;;;3.73;100.00
64551;BME280;74341;44.510;-123.270;2024-02-16T12:26:34;101410.13;;;3.72;100.00